createdAt,value
2019-05-19T00:02:00.038Z,13.90
2019-05-19T00:04:30.708Z,14.00
2019-05-19T00:07:01.341Z,14.43
2019-05-19T00:09:31.903Z,14.53
2019-05-19T00:12:04.183Z,13.33
2019-05-19T00:14:34.931Z,14.37
2019-05-19T00:17:10.667Z,14.17
2019-05-19T00:19:42.095Z,14.50
2019-05-19T00:22:12.937Z,13.40
2019-05-19T00:24:43.360Z,14.70
2019-05-19T00:27:14.478Z,13.33
2019-05-19T00:29:45.693Z,14.60
2019-05-19T00:32:16.146Z,13.87
2019-05-19T00:34:46.599Z,13.73
2019-05-19T00:37:16.999Z,13.23
2019-05-19T00:39:49.148Z,13.87
2019-05-19T00:42:19.784Z,14.33
2019-05-19T00:44:53.814Z,15.57
2019-05-19T00:47:24.336Z,16.40
2019-05-19T00:49:54.762Z,15.37
2019-05-19T00:52:25.312Z,17.07
2019-05-19T00:54:55.825Z,15.73
2019-05-19T00:57:45.302Z,16.27
2019-05-19T01:00:15.833Z,15.13
2019-05-19T01:02:46.237Z,15.17
2019-05-19T01:05:16.669Z,17.60
2019-05-19T01:07:47.303Z,16.57
2019-05-19T01:10:18.215Z,16.00
2019-05-19T01:12:48.644Z,18.03
2019-05-19T01:15:19.067Z,15.97
2019-05-19T01:17:49.633Z,15.90
2019-05-19T01:20:22.315Z,16.53
2019-05-19T01:22:52.733Z,16.30
2019-05-19T01:25:23.687Z,16.20
2019-05-19T01:27:54.119Z,15.27
2019-05-19T01:30:24.523Z,15.43
2019-05-19T01:32:54.945Z,14.40
2019-05-19T01:35:26.377Z,15.37
2019-05-19T01:38:02.982Z,14.53
2019-05-19T01:40:33.380Z,15.50
2019-05-19T01:43:54.333Z,15.60
2019-05-19T01:46:24.871Z,14.83
2019-05-19T01:48:55.853Z,14.30
2019-05-19T01:51:26.300Z,14.90
2019-05-19T01:53:57.212Z,14.13
2019-05-19T01:56:29.212Z,15.63
2019-05-19T01:58:59.603Z,15.50
2019-05-19T02:01:30.035Z,15.10
2019-05-19T02:04:01.083Z,15.33
2019-05-19T02:06:33.360Z,14.83
2019-05-19T02:09:05.140Z,14.63
2019-05-19T02:11:35.624Z,16.13
2019-05-19T02:14:06.581Z,15.23
2019-05-19T02:16:37.079Z,16.13
2019-05-19T02:19:19.929Z,15.63
2019-05-19T02:21:50.387Z,15.87
2019-05-19T02:24:20.834Z,15.97
2019-05-19T02:26:51.283Z,15.07
2019-05-19T02:29:22.251Z,14.57
2019-05-19T02:31:52.697Z,16.03
2019-05-19T02:34:23.146Z,14.97
2019-05-19T02:36:53.574Z,16.27
2019-05-19T02:39:36.937Z,15.70
2019-05-19T02:42:07.333Z,16.13
2019-05-19T02:44:40.497Z,16.33
2019-05-19T02:47:11.177Z,17.70
2019-05-19T02:52:30.988Z,17.50
2019-05-19T02:55:01.524Z,18.93
2019-05-19T02:57:32.824Z,16.40
2019-05-19T03:00:03.485Z,16.97
2019-05-19T03:02:34.114Z,17.47
2019-05-19T03:05:07.011Z,16.90
2019-05-19T03:07:37.920Z,16.33
2019-05-19T03:10:08.444Z,17.17
2019-05-19T03:12:39.006Z,17.17
2019-05-19T03:15:09.448Z,18.73
2019-05-19T03:17:40.096Z,18.07
2019-05-19T03:20:11.054Z,17.27
2019-05-19T03:22:41.573Z,17.53
2019-05-19T03:25:12.641Z,18.67
2019-05-19T03:27:43.108Z,17.67
2019-05-19T03:30:31.289Z,18.90
2019-05-19T03:33:02.993Z,17.93
2019-05-19T03:35:33.723Z,16.97
2019-05-19T03:38:04.246Z,18.07
2019-05-19T03:40:34.655Z,17.93
2019-05-19T03:43:05.125Z,17.67
2019-05-19T03:45:35.786Z,17.70
2019-05-19T03:48:06.547Z,18.67
2019-05-19T03:50:36.963Z,18.40
2019-05-19T03:53:07.717Z,18.63
2019-05-19T03:55:38.251Z,18.90
2019-05-19T03:58:08.649Z,20.13
2019-05-19T04:00:40.414Z,18.40
2019-05-19T04:03:10.861Z,19.37
2019-05-19T04:05:41.345Z,19.40
2019-05-19T04:08:12.086Z,19.33
2019-05-19T04:10:42.607Z,20.40
2019-05-19T04:13:13.067Z,21.80
2019-05-19T04:15:43.859Z,22.00
2019-05-19T04:18:17.663Z,22.40
2019-05-19T04:20:47.749Z,23.00
2019-05-19T04:23:18.181Z,24.47
2019-05-19T04:25:48.668Z,22.37
2019-05-19T04:28:19.134Z,23.00
2019-05-19T04:30:49.585Z,23.90
2019-05-19T04:33:20.030Z,23.10
2019-05-19T04:35:50.464Z,22.73
2019-05-19T04:38:21.116Z,23.80
2019-05-19T04:41:01.901Z,20.63
2019-05-19T04:43:32.361Z,20.63
2019-05-19T04:46:04.164Z,20.53
2019-05-19T04:48:34.556Z,21.50
2019-05-19T04:51:04.958Z,21.00
2019-05-19T04:53:37.518Z,20.73
2019-05-19T04:56:19.874Z,22.43
2019-05-19T04:58:50.070Z,20.73
2019-05-19T05:01:20.486Z,23.30
2019-05-19T05:03:50.955Z,23.33
2019-05-19T05:06:21.566Z,21.37
2019-05-19T05:08:52.029Z,21.50
2019-05-19T05:11:22.741Z,21.20
2019-05-19T05:13:53.171Z,20.20
2019-05-19T05:16:23.627Z,21.87
2019-05-19T05:18:54.057Z,20.50
2019-05-19T05:21:24.687Z,23.17
2019-05-19T05:24:00.138Z,20.13
2019-05-19T05:26:30.624Z,22.17
2019-05-19T05:29:01.058Z,21.40
2019-05-19T05:31:31.475Z,19.50
2019-05-19T05:34:02.177Z,19.90
2019-05-19T05:36:33.075Z,18.83
2019-05-19T05:39:04.982Z,19.70
2019-05-19T05:41:35.457Z,19.20
2019-05-19T05:44:06.080Z,18.17
2019-05-19T05:46:36.748Z,18.57
2019-05-19T05:49:07.262Z,18.43
2019-05-19T05:51:40.291Z,18.90
2019-05-19T05:54:11.095Z,19.23
2019-05-19T05:56:42.103Z,16.80
2019-05-19T05:59:15.841Z,17.60
2019-05-19T06:01:46.306Z,18.43
2019-05-19T06:04:17.559Z,17.27
2019-05-19T06:06:48.123Z,17.47
2019-05-19T06:09:19.094Z,17.27
2019-05-19T06:11:50.337Z,16.73
2019-05-19T06:14:21.110Z,16.93
2019-05-19T06:16:52.086Z,15.47
2019-05-19T06:19:35.203Z,15.63
2019-05-19T06:22:08.352Z,15.43
2019-05-19T06:24:45.064Z,15.33
2019-05-19T06:27:14.321Z,14.93
2019-05-19T06:29:44.800Z,14.70
2019-05-19T06:32:38.634Z,15.57
2019-05-19T06:35:09.090Z,14.07
2019-05-19T06:37:39.581Z,15.17
2019-05-19T06:40:12.881Z,14.30
2019-05-19T06:42:43.369Z,16.07
2019-05-19T06:45:17.213Z,14.90
2019-05-19T06:47:49.675Z,15.50
2019-05-19T06:50:20.230Z,15.57
2019-05-19T06:52:50.796Z,15.60
2019-05-19T06:55:21.260Z,15.27
2019-05-19T06:57:53.187Z,15.13
2019-05-19T07:00:23.696Z,15.17
2019-05-19T07:03:00.230Z,16.27
2019-05-19T07:05:31.707Z,15.53
2019-05-19T07:08:08.109Z,15.07
2019-05-19T07:10:38.841Z,14.03
2019-05-19T07:13:09.504Z,14.30
2019-05-19T07:15:39.984Z,13.57
2019-05-19T07:18:10.463Z,13.77
2019-05-19T07:20:41.066Z,13.97
2019-05-19T07:23:11.962Z,14.10
2019-05-19T07:25:42.937Z,14.67
2019-05-19T07:28:17.595Z,14.73
2019-05-19T07:30:48.120Z,14.20
2019-05-19T07:33:18.915Z,14.57
2019-05-19T07:35:50.764Z,15.40
2019-05-19T07:38:21.229Z,14.27
2019-05-19T07:40:55.217Z,14.87
2019-05-19T07:43:28.407Z,15.17
2019-05-19T07:46:02.094Z,14.47
2019-05-19T07:48:34.224Z,14.80
2019-05-19T07:51:08.192Z,14.93
2019-05-19T07:53:42.878Z,14.73
2019-05-19T07:56:14.738Z,13.60
2019-05-19T07:58:45.267Z,13.73
2019-05-19T08:01:20.047Z,15.03
2019-05-19T08:03:50.579Z,13.17
2019-05-19T08:06:28.671Z,16.67
2019-05-19T08:09:02.127Z,14.80
2019-05-19T08:11:33.650Z,14.30
2019-05-19T08:14:09.751Z,13.93
2019-05-19T08:16:40.237Z,14.47
2019-05-19T08:19:10.690Z,14.70
2019-05-19T08:21:41.155Z,15.10
2019-05-19T08:24:11.642Z,14.57
2019-05-19T08:26:42.369Z,14.70
2019-05-19T08:29:14.485Z,14.93
2019-05-19T08:31:50.230Z,14.87
2019-05-19T08:34:21.090Z,15.80
2019-05-19T08:36:57.290Z,16.10
2019-05-19T08:39:28.888Z,15.33
2019-05-19T08:41:59.361Z,15.83
2019-05-19T08:44:29.762Z,15.37
2019-05-19T08:47:05.130Z,15.23
2019-05-19T08:49:39.457Z,14.80
2019-05-19T08:52:13.672Z,14.97
2019-05-19T08:54:49.609Z,15.70
2019-05-19T08:57:20.346Z,15.63
2019-05-19T08:59:51.164Z,15.60
2019-05-19T09:02:24.101Z,15.30
2019-05-19T09:04:54.913Z,14.97
2019-05-19T09:07:25.391Z,15.67
2019-05-19T09:09:56.042Z,16.23
2019-05-19T09:12:26.836Z,15.20
2019-05-19T09:15:06.007Z,15.00
2019-05-19T09:17:39.311Z,15.53
2019-05-19T09:20:10.060Z,15.30
2019-05-19T09:22:42.236Z,14.90
2019-05-19T09:25:12.666Z,14.80
2019-05-19T09:27:43.419Z,14.30
2019-05-19T09:30:15.185Z,14.93
2019-05-19T09:32:45.745Z,13.83
2019-05-19T09:35:16.232Z,14.77
2019-05-19T09:37:47.118Z,13.33
2019-05-19T09:40:19.106Z,12.97
2019-05-19T09:42:55.117Z,14.93
2019-05-19T09:45:25.186Z,14.20
2019-05-19T09:47:57.906Z,14.30
2019-05-19T09:50:30.627Z,14.00
2019-05-19T09:53:05.778Z,14.90
2019-05-19T09:55:38.859Z,15.40
2019-05-19T09:58:09.346Z,13.20
2019-05-19T10:00:45.670Z,13.93
2019-05-19T10:03:19.787Z,14.40
2019-05-19T10:05:57.939Z,14.30
2019-05-19T10:08:55.880Z,14.10
2019-05-19T10:12:00.502Z,13.60
2019-05-19T10:14:30.963Z,13.27
2019-05-19T10:17:01.653Z,13.37
2019-05-19T10:19:34.795Z,13.57
2019-05-19T10:22:05.399Z,13.57
2019-05-19T10:24:57.820Z,13.70
2019-05-19T10:27:21.858Z,13.03
2019-05-19T10:29:54.095Z,12.50
2019-05-19T10:32:26.318Z,12.73
2019-05-19T10:34:57.179Z,13.43
2019-05-19T10:37:28.283Z,12.97
2019-05-19T10:39:59.495Z,14.13
2019-05-19T10:42:30.242Z,12.93
2019-05-19T10:45:00.725Z,12.37
2019-05-19T10:47:31.115Z,12.37
2019-05-19T10:50:01.622Z,13.47
2019-05-19T10:52:34.352Z,12.57
2019-05-19T10:55:05.084Z,13.47
2019-05-19T10:57:37.166Z,12.90
2019-05-19T11:00:08.739Z,12.43
2019-05-19T11:02:42.702Z,12.27
2019-05-19T11:05:13.413Z,10.70
2019-05-19T11:07:53.615Z,9.63
2019-05-19T11:10:24.165Z,10.80
2019-05-19T11:12:54.729Z,10.60
2019-05-19T11:15:28.671Z,11.23
2019-05-19T11:18:07.885Z,11.73
2019-05-19T11:20:41.765Z,10.73
2019-05-19T11:23:24.015Z,11.20
2019-05-19T11:25:55.067Z,10.80
2019-05-19T11:28:25.631Z,12.20
2019-05-19T11:30:59.794Z,12.80
2019-05-19T11:33:29.239Z,12.03
2019-05-19T11:36:06.174Z,11.80
2019-05-19T11:38:41.392Z,11.50
2019-05-19T11:41:15.096Z,10.90
2019-05-19T11:44:14.735Z,10.93
2019-05-19T11:46:49.300Z,10.90
2019-05-19T11:49:24.861Z,10.87
2019-05-19T11:52:04.963Z,9.77
2019-05-19T11:54:41.182Z,9.53
2019-05-19T11:57:32.251Z,9.50
2019-05-19T12:00:06.524Z,9.40
2019-05-19T12:03:03.609Z,9.27
2019-05-19T12:05:37.756Z,9.77
2019-05-19T12:08:21.227Z,10.60
2019-05-19T12:10:53.195Z,10.23
2019-05-19T12:13:25.997Z,9.83
2019-05-19T12:15:58.265Z,10.10
2019-05-19T12:18:32.396Z,9.07
2019-05-19T12:21:04.871Z,10.47
2019-05-19T12:23:35.584Z,9.83
2019-05-19T12:26:22.212Z,9.87
2019-05-19T12:28:42.592Z,10.23
2019-05-19T12:31:17.110Z,9.07
2019-05-19T12:33:52.471Z,9.90
2019-05-19T12:36:25.080Z,9.07
2019-05-19T12:38:55.526Z,9.50
2019-05-19T12:41:40.847Z,9.57
2019-05-19T12:44:15.611Z,8.87
2019-05-19T12:46:49.556Z,8.83
2019-05-19T12:49:31.970Z,9.50
2019-05-19T12:52:07.180Z,9.83
2019-05-19T12:54:39.309Z,9.30
2019-05-19T12:57:12.244Z,9.13
2019-05-19T12:59:42.986Z,9.37
2019-05-19T13:02:13.387Z,9.20
2019-05-19T13:04:44.093Z,9.57
2019-05-19T13:07:15.178Z,8.97
2019-05-19T13:09:45.648Z,8.70
2019-05-19T13:12:19.140Z,9.20
2019-05-19T13:14:54.313Z,8.87
2019-05-19T13:17:24.707Z,9.50
2019-05-19T13:19:55.234Z,9.13
2019-05-19T13:22:34.284Z,9.13
2019-05-19T13:25:10.101Z,9.00
2019-05-19T13:27:41.391Z,10.17
2019-05-19T13:30:12.028Z,9.73
2019-05-19T13:32:42.999Z,8.73
2019-05-19T13:35:13.485Z,9.23
2019-05-19T13:37:43.935Z,9.70
2019-05-19T13:40:14.361Z,9.10
2019-05-19T13:42:46.302Z,9.13
2019-05-19T13:45:17.115Z,8.20
2019-05-19T13:47:47.899Z,7.93
2019-05-19T13:50:25.586Z,7.97
2019-05-19T13:52:59.203Z,7.47
2019-05-19T13:55:30.112Z,7.37
2019-05-19T13:58:03.446Z,7.43
2019-05-19T14:00:32.935Z,7.07
2019-05-19T14:03:03.402Z,6.87
2019-05-19T14:05:33.813Z,5.90
2019-05-19T14:08:07.014Z,6.33
2019-05-19T14:10:41.682Z,6.57
2019-05-19T14:13:12.113Z,6.50
2019-05-19T14:15:53.561Z,6.53
2019-05-19T14:18:27.652Z,6.53
2019-05-19T14:20:58.097Z,5.57
2019-05-19T14:23:29.651Z,6.07
2019-05-19T14:26:00.498Z,5.70
2019-05-19T14:28:32.092Z,4.50
2019-05-19T14:31:02.773Z,4.70
2019-05-19T14:33:34.242Z,5.50
2019-05-19T14:36:06.251Z,5.97
2019-05-19T14:38:39.658Z,5.27
2019-05-19T14:41:10.494Z,5.10
2019-05-19T14:43:44.107Z,4.83
2019-05-19T14:46:14.671Z,5.93
2019-05-19T14:48:46.754Z,5.63
2019-05-19T14:51:22.039Z,5.80
2019-05-19T14:53:57.411Z,5.80
2019-05-19T14:56:28.071Z,5.43
2019-05-19T14:59:01.507Z,5.37
2019-05-19T15:01:36.596Z,5.70
2019-05-19T15:04:19.288Z,5.30
2019-05-19T15:06:53.005Z,5.17
2019-05-19T15:09:33.660Z,5.87
2019-05-19T15:12:10.565Z,5.63
2019-05-19T15:14:41.188Z,5.13
2019-05-19T15:17:20.093Z,5.60
2019-05-19T15:19:51.164Z,5.53
2019-05-19T15:22:27.133Z,5.37
2019-05-19T15:24:59.075Z,5.20
2019-05-19T15:27:32.971Z,6.00
2019-05-19T15:30:13.277Z,5.00
2019-05-19T15:32:42.621Z,5.53
2019-05-19T15:35:16.502Z,4.87
2019-05-19T15:37:52.641Z,5.20
2019-05-19T15:40:23.308Z,5.33
2019-05-19T15:42:54.331Z,5.13
2019-05-19T15:45:25.516Z,6.03
2019-05-19T15:48:02.706Z,5.97
2019-05-19T15:50:33.835Z,6.20
2019-05-19T15:53:04.656Z,5.30
2019-05-19T15:55:35.305Z,6.07
2019-05-19T15:58:16.447Z,5.40
2019-05-19T16:01:00.286Z,5.37
2019-05-19T16:03:31.094Z,5.73
2019-05-19T16:06:02.101Z,6.37
2019-05-19T16:08:34.491Z,5.27
2019-05-19T16:11:10.276Z,5.90
2019-05-19T16:13:40.759Z,6.23
2019-05-19T16:16:14.525Z,6.23
2019-05-19T16:19:04.090Z,6.40
2019-05-19T16:21:34.542Z,6.07
2019-05-19T16:24:08.079Z,6.83
2019-05-19T16:26:55.624Z,6.53
2019-05-19T16:29:33.852Z,6.50
2019-05-19T16:32:08.451Z,7.20
2019-05-19T16:34:41.223Z,7.10
2019-05-19T16:37:37.520Z,8.00
2019-05-19T16:40:12.406Z,7.80
2019-05-19T16:43:15.785Z,8.97
2019-05-19T16:45:48.898Z,9.70
2019-05-19T16:48:19.378Z,8.57
2019-05-19T16:50:49.836Z,8.90
2019-05-19T16:53:25.164Z,8.37
2019-05-19T16:55:55.262Z,8.90
2019-05-19T16:58:44.512Z,9.63
2019-05-19T17:01:04.420Z,9.67
2019-05-19T17:03:36.781Z,11.10
2019-05-19T17:06:08.705Z,10.30
2019-05-19T17:08:39.131Z,11.57
2019-05-19T17:11:17.942Z,12.30
2019-05-19T17:13:42.386Z,14.10
2019-05-19T17:16:17.092Z,12.10
2019-05-19T17:18:49.083Z,10.63
2019-05-19T17:21:24.109Z,10.50
2019-05-19T17:23:57.630Z,10.30
2019-05-19T17:26:30.093Z,10.40
2019-05-19T17:29:01.184Z,10.13
2019-05-19T17:31:43.204Z,10.43
2019-05-19T17:34:13.885Z,10.93
2019-05-19T17:36:53.947Z,10.80
2019-05-19T17:39:35.100Z,10.37
2019-05-19T17:42:09.088Z,10.00
2019-05-19T17:44:42.689Z,10.53
2019-05-19T17:47:14.332Z,10.17
2019-05-19T17:49:46.547Z,10.40
2019-05-19T17:52:17.077Z,11.03
2019-05-19T17:54:50.358Z,9.80
2019-05-19T17:57:25.007Z,11.13
2019-05-19T17:59:57.643Z,10.77
2019-05-19T18:02:32.865Z,11.07
2019-05-19T18:05:06.872Z,13.77
2019-05-19T18:07:40.586Z,12.90
2019-05-19T18:10:13.292Z,12.83
2019-05-19T18:12:50.987Z,13.27
2019-05-19T18:15:23.301Z,15.77
2019-05-19T18:17:58.622Z,16.03
2019-05-19T18:20:29.362Z,14.10
2019-05-19T18:23:03.779Z,11.77
2019-05-19T18:25:34.333Z,13.00
2019-05-19T18:28:05.582Z,12.57
2019-05-19T18:30:37.937Z,13.33
2019-05-19T18:36:19.463Z,11.27
2019-05-19T18:38:50.678Z,11.80
2019-05-19T18:41:25.536Z,12.23
2019-05-19T18:43:56.042Z,13.33
2019-05-19T18:46:40.795Z,12.73
2019-05-19T18:49:11.238Z,12.67
2019-05-19T18:51:44.254Z,13.60
2019-05-19T18:54:16.290Z,13.57
2019-05-19T18:56:46.698Z,13.23
2019-05-19T18:59:27.177Z,15.17
2019-05-19T19:02:00.691Z,15.27
2019-05-19T19:04:34.315Z,15.10
2019-05-19T19:07:07.934Z,15.37
2019-05-19T19:09:54.903Z,15.63
2019-05-19T19:12:32.248Z,15.67
2019-05-19T19:15:11.023Z,16.27
2019-05-19T19:17:46.250Z,16.17
2019-05-19T19:20:19.814Z,15.83
2019-05-19T19:22:53.756Z,14.97
2019-05-19T19:25:26.976Z,15.00
2019-05-19T19:27:59.392Z,17.13
2019-05-19T19:30:33.891Z,16.77
2019-05-19T19:33:04.573Z,16.23
2019-05-19T19:35:39.102Z,16.10
2019-05-19T19:38:13.290Z,16.60
2019-05-19T19:40:44.204Z,15.47
2019-05-19T19:43:35.090Z,16.20
2019-05-19T19:46:02.378Z,14.80
2019-05-19T19:48:39.039Z,15.20
2019-05-19T19:51:27.589Z,14.47
2019-05-19T19:53:58.782Z,14.70
2019-05-19T19:56:30.827Z,14.83
2019-05-19T19:59:09.120Z,14.80
2019-05-19T20:01:42.614Z,14.50
2019-05-19T20:04:16.745Z,14.23
2019-05-19T20:06:48.064Z,15.33
2019-05-19T20:09:21.305Z,14.43
2019-05-19T20:12:10.881Z,15.80
2019-05-19T20:14:46.496Z,14.73
2019-05-19T20:17:24.601Z,14.83
2019-05-19T20:20:16.089Z,15.27
2019-05-19T20:22:55.263Z,14.93
2019-05-19T20:25:25.799Z,14.30
2019-05-19T20:27:59.503Z,15.00
2019-05-19T20:30:35.582Z,14.83
2019-05-19T20:33:02.960Z,14.57
2019-05-19T20:35:34.541Z,14.80
2019-05-19T20:40:58.985Z,15.60
2019-05-19T20:43:31.328Z,15.43
2019-05-19T20:46:05.442Z,16.03
2019-05-19T20:48:38.133Z,15.53
2019-05-19T20:51:12.091Z,14.70
2019-05-19T20:53:49.315Z,15.20
2019-05-19T20:56:20.404Z,15.00
2019-05-19T20:58:52.290Z,14.97
2019-05-19T21:01:23.145Z,14.87
2019-05-19T21:03:55.320Z,16.07
2019-05-19T21:06:31.206Z,15.27
2019-05-19T21:09:02.007Z,16.37
2019-05-19T21:11:35.076Z,14.47
2019-05-19T21:14:10.258Z,15.27
2019-05-19T21:16:41.685Z,14.30
2019-05-19T21:19:14.121Z,15.13
2019-05-19T21:21:52.876Z,14.90
2019-05-19T21:24:28.675Z,14.37
2019-05-19T21:27:00.373Z,16.67
2019-05-19T21:29:32.095Z,16.70
2019-05-19T21:32:05.004Z,15.47
2019-05-19T21:34:38.701Z,15.57
2019-05-19T21:37:09.393Z,16.00
2019-05-19T21:39:42.825Z,14.97
2019-05-19T21:42:15.810Z,13.77
2019-05-19T21:44:48.392Z,14.77
2019-05-19T21:47:39.031Z,15.60
2019-05-19T21:50:11.414Z,14.87
2019-05-19T21:52:42.310Z,15.40
2019-05-19T21:55:13.611Z,15.10
2019-05-19T21:57:44.485Z,14.00
2019-05-19T22:00:25.834Z,15.53
2019-05-19T22:03:15.218Z,14.77
2019-05-19T22:05:53.703Z,14.33
2019-05-19T22:08:25.622Z,14.17
2019-05-19T22:11:04.871Z,13.70
2019-05-19T22:13:35.754Z,13.83
2019-05-19T22:16:25.396Z,14.20
2019-05-19T22:18:59.536Z,15.53
2019-05-19T22:21:30.396Z,14.87
2019-05-19T22:24:01.135Z,15.37
2019-05-19T22:26:32.025Z,15.47
2019-05-19T22:29:03.087Z,14.73
2019-05-19T22:31:36.930Z,13.33
2019-05-19T22:34:36.716Z,13.77
2019-05-19T22:37:07.544Z,14.03
2019-05-19T22:39:38.272Z,13.57
2019-05-19T22:42:10.345Z,14.40
2019-05-19T22:44:41.228Z,12.37
2019-05-19T22:47:14.899Z,13.57
2019-05-19T22:49:48.247Z,13.37
2019-05-19T22:52:19.024Z,12.93
2019-05-19T22:54:54.569Z,14.33
2019-05-19T22:57:25.412Z,13.43
2019-05-19T22:59:59.324Z,13.30
2019-05-19T23:02:34.698Z,12.40
2019-05-19T23:05:07.271Z,12.73
2019-05-19T23:07:44.751Z,12.87
2019-05-19T23:10:18.172Z,13.33
2019-05-19T23:12:53.067Z,13.93
2019-05-19T23:15:24.386Z,12.50
2019-05-19T23:17:56.795Z,13.10
2019-05-19T23:20:33.078Z,12.37
2019-05-19T23:23:06.379Z,12.47
2019-05-19T23:25:38.861Z,12.30
2019-05-19T23:28:11.976Z,11.87
2019-05-19T23:30:45.084Z,12.50
2019-05-19T23:33:17.041Z,11.23
2019-05-19T23:35:50.292Z,11.70
2019-05-19T23:38:21.024Z,12.40
2019-05-19T23:40:52.347Z,12.07
2019-05-19T23:43:26.042Z,12.10
2019-05-19T23:45:56.424Z,12.33
2019-05-19T23:48:27.297Z,12.03
2019-05-19T23:50:57.809Z,12.63
2019-05-19T23:53:29.162Z,12.40
2019-05-19T23:55:59.596Z,13.33
2019-05-19T23:58:31.611Z,12.17
